Time;durP1;ratioP1;P1;durP2;ratioP2;P2;SDS_P1;SDS_P2;PMS_P1;PMS_P2;Temp;Humidity;BMP_temperature;BMP_pressure;BME280_temperature;BME280_humidity;BME280_pressure;Samples;Min_cycle;Max_cycle;Signal;HPM_P1;HPM_P2
2021/01/19 00:00:00;;;;;;;9.23;7.47;;;;;;;;;;5068739;28;20177;-43
2021/01/19 00:02:25;;;;;;;6.43;5.83;;;;;;;;;;5069343;28;20205;-43
2021/01/19 00:04:50;;;;;;;7.87;6.73;;;;;;;;;;5074446;28;20247;-43
2021/01/19 00:07:15;;;;;;;6.63;6.03;;;;;;;;;;5065333;28;20252;-43
2021/01/19 00:09:41;;;;;;;6.90;6.25;;;;;;;;;;5068581;28;20178;-43
2021/01/19 00:12:06;;;;;;;6.57;5.97;;;;;;;;;;5079030;28;20212;-43
2021/01/19 00:14:31;;;;;;;6.80;6.20;;;;;;;;;;5073784;28;20213;-42
2021/01/19 00:16:56;;;;;;;7.70;6.95;;;;;;;;;;5065014;28;20239;-44
2021/01/19 00:19:21;;;;;;;6.60;6.00;;;;;;;;;;5071874;28;20190;-43
2021/01/19 00:21:46;;;;;;;7.18;6.53;;;;;;;;;;5068954;28;20556;-43
2021/01/19 00:24:11;;;;;;;7.18;6.47;;;;;;;;;;5076943;28;20609;-43
2021/01/19 00:26:38;;;;;;;8.13;6.63;;;;;;;;;;5073266;28;20177;-44
2021/01/19 00:29:04;;;;;;;7.13;6.43;;;;;;;;;;5070356;28;20176;-44
2021/01/19 00:31:29;;;;;;;6.97;6.38;;;;;;;;;;5080663;28;20755;-43
2021/01/19 00:33:54;;;;;;;7.97;7.18;;;;;;;;;;5078735;28;20206;-43
2021/01/19 00:36:19;;;;;;;7.32;6.55;;;;;;;;;;5073955;28;20413;-42
2021/01/19 00:38:44;;;;;;;6.43;5.83;;;;;;;;;;5084275;28;20189;-43
2021/01/19 00:41:09;;;;;;;7.80;7.07;;;;;;;;;;5074980;28;20171;-43
2021/01/19 00:43:34;;;;;;;6.68;6.18;;;;;;;;;;5078924;28;20208;-43
2021/01/19 00:46:00;;;;;;;7.47;6.57;;;;;;;;;;5079237;28;20171;-43
2021/01/19 00:48:25;;;;;;;6.57;6.00;;;;;;;;;;5075205;28;20189;-43
2021/01/19 00:50:50;;;;;;;7.10;6.40;;;;;;;;;;5074847;28;20190;-43
2021/01/19 00:53:15;;;;;;;5.70;5.30;;;;;;;;;;5078300;28;20259;-42
2021/01/19 00:55:40;;;;;;;6.30;5.70;;;;;;;;;;5072783;28;20187;-42
2021/01/19 00:58:06;;;;;;;6.20;5.70;;;;;;;;;;5076535;28;20210;-42
2021/01/19 01:00:31;;;;;;;5.77;5.20;;;;;;;;;;5078351;28;20173;-42
2021/01/19 01:02:56;;;;;;;6.17;5.67;;;;;;;;;;5075145;28;20207;-42
2021/01/19 01:05:21;;;;;;;5.72;5.22;;;;;;;;;;5078773;28;20181;-42
2021/01/19 01:07:47;;;;;;;5.20;4.80;;;;;;;;;;5076313;28;20207;-42
2021/01/19 01:10:13;;;;;;;7.78;5.40;;;;;;;;;;5077170;28;20172;-43
2021/01/19 01:12:41;;;;;;;5.73;5.33;;;;;;;;;;5074650;28;20207;-43
2021/01/19 01:15:07;;;;;;;5.83;5.43;;;;;;;;;;5075166;28;20712;-43
2021/01/19 01:17:36;;;;;;;5.30;4.80;;;;;;;;;;5070988;28;21150;-43
2021/01/19 01:20:02;;;;;;;5.33;4.93;;;;;;;;;;5075963;28;20597;-43
2021/01/19 01:22:27;;;;;;;6.33;5.57;;;;;;;;;;5079765;28;20663;-42
2021/01/19 01:24:52;;;;;;;5.93;5.40;;;;;;;;;;5074953;28;20625;-43
2021/01/19 01:27:18;;;;;;;6.22;5.63;;;;;;;;;;5067781;28;20225;-43
2021/01/19 01:29:43;;;;;;;5.95;5.45;;;;;;;;;;5073496;28;20203;-43
2021/01/19 01:32:08;;;;;;;5.10;4.70;;;;;;;;;;5071875;28;20174;-42
2021/01/19 01:34:33;;;;;;;5.80;5.30;;;;;;;;;;5079004;28;20312;-42
2021/01/19 01:36:58;;;;;;;5.30;4.90;;;;;;;;;;5075792;28;20183;-42
2021/01/19 01:39:23;;;;;;;4.72;4.32;;;;;;;;;;5073503;28;20578;-42
2021/01/19 01:41:49;;;;;;;5.80;5.17;;;;;;;;;;5072875;28;20222;-42
2021/01/19 01:44:14;;;;;;;5.40;5.00;;;;;;;;;;5070723;28;20533;-43
2021/01/19 01:46:39;;;;;;;5.80;5.40;;;;;;;;;;5072078;28;20162;-43
2021/01/19 01:49:04;;;;;;;5.03;4.60;;;;;;;;;;5078449;28;20165;-42
2021/01/19 01:51:30;;;;;;;4.90;4.60;;;;;;;;;;5080280;28;20695;-42
2021/01/19 01:53:56;;;;;;;5.60;5.10;;;;;;;;;;5070082;28;20174;-43
2021/01/19 01:56:21;;;;;;;5.30;4.90;;;;;;;;;;5071831;28;20634;-42
2021/01/19 01:58:47;;;;;;;6.37;5.53;;;;;;;;;;5074600;28;20216;-42
2021/01/19 02:01:12;;;;;;;5.03;4.63;;;;;;;;;;5075341;28;20516;-43
2021/01/19 02:03:37;;;;;;;4.77;4.37;;;;;;;;;;5066817;28;20206;-43
2021/01/19 02:06:02;;;;;;;4.73;4.10;;;;;;;;;;5070086;28;20217;-43
2021/01/19 02:08:45;;;;;;;5.33;4.93;;;;;;;;;;5079085;28;20257;-43
2021/01/19 02:11:22;;;;;;;5.07;4.60;;;;;;;;;;5062891;28;20172;-43
2021/01/19 02:13:54;;;;;;;5.50;5.10;;;;;;;;;;5072321;28;20724;-43
2021/01/19 02:16:34;;;;;;;4.80;4.50;;;;;;;;;;5066100;28;20620;-42
2021/01/19 02:19:14;;;;;;;4.97;4.50;;;;;;;;;;5068562;28;21167;-42
2021/01/19 02:21:39;;;;;;;4.27;3.97;;;;;;;;;;5070930;28;20657;-43
2021/01/19 02:24:10;;;;;;;5.15;4.75;;;;;;;;;;5072497;28;20653;-42
2021/01/19 02:27:02;;;;;;;4.93;4.53;;;;;;;;;;5067162;28;20653;-42
2021/01/19 02:29:36;;;;;;;4.50;4.20;;;;;;;;;;5065631;28;20641;-42
2021/01/19 02:32:13;;;;;;;5.83;5.20;;;;;;;;;;5075149;28;20696;-42
2021/01/19 02:34:47;;;;;;;4.70;4.40;;;;;;;;;;5072093;28;20647;-42
2021/01/19 02:37:20;;;;;;;5.17;4.80;;;;;;;;;;5055214;28;20597;-41
2021/01/19 02:39:45;;;;;;;5.47;4.97;;;;;;;;;;5072277;28;20810;-42
2021/01/19 02:42:11;;;;;;;5.40;5.07;;;;;;;;;;5071903;28;21011;-41
2021/01/19 02:44:40;;;;;;;4.90;4.60;;;;;;;;;;5070472;28;20237;-42
2021/01/19 02:47:05;;;;;;;5.00;4.70;;;;;;;;;;5066210;28;20605;-42
2021/01/19 02:49:31;;;;;;;5.40;5.00;;;;;;;;;;5076261;28;20604;-43
2021/01/19 02:51:57;;;;;;;5.17;4.77;;;;;;;;;;5073999;28;20576;-42
2021/01/19 02:54:22;;;;;;;7.90;4.63;;;;;;;;;;5070330;28;20178;-41
2021/01/19 02:57:20;;;;;;;5.07;4.73;;;;;;;;;;5061834;28;20598;-42
2021/01/19 02:59:49;;;;;;;4.63;4.33;;;;;;;;;;5007477;28;20205;-42
2021/01/19 03:02:22;;;;;;;5.73;5.23;;;;;;;;;;5050955;28;20710;-42
2021/01/19 03:04:47;;;;;;;5.33;4.90;;;;;;;;;;5069480;28;20593;-41
2021/01/19 03:07:13;;;;;;;5.50;5.00;;;;;;;;;;5067838;28;20662;-42
2021/01/19 03:09:39;;;;;;;6.40;5.20;;;;;;;;;;5077933;28;20175;-41
2021/01/19 03:12:05;;;;;;;5.03;4.63;;;;;;;;;;5067322;28;20179;-43
2021/01/19 03:14:30;;;;;;;6.00;5.50;;;;;;;;;;5069423;28;21229;-42
2021/01/19 03:17:05;;;;;;;5.77;5.20;;;;;;;;;;5067509;28;20653;-42
2021/01/19 03:19:32;;;;;;;5.97;5.57;;;;;;;;;;5077380;28;20293;-41
2021/01/19 03:21:57;;;;;;;6.30;5.80;;;;;;;;;;5078300;28;20645;-43
2021/01/19 03:24:23;;;;;;;6.18;5.57;;;;;;;;;;5075602;28;20683;-43
2021/01/19 03:26:48;;;;;;;6.18;5.32;;;;;;;;;;5068177;28;20273;-42
2021/01/19 03:29:13;;;;;;;5.78;5.38;;;;;;;;;;5070898;28;20172;-41
2021/01/19 03:31:38;;;;;;;5.47;5.07;;;;;;;;;;5081528;28;20182;-42
2021/01/19 03:34:03;;;;;;;6.32;5.82;;;;;;;;;;5080335;28;20259;-42
2021/01/19 03:36:28;;;;;;;7.43;5.25;;;;;;;;;;5070401;28;20183;-41
2021/01/19 03:38:53;;;;;;;6.22;5.72;;;;;;;;;;5071814;28;20520;-42
2021/01/19 03:41:19;;;;;;;6.90;5.57;;;;;;;;;;5074841;28;20243;-42
2021/01/19 03:43:44;;;;;;;6.00;5.40;;;;;;;;;;5072887;28;20199;-42
2021/01/19 03:46:09;;;;;;;6.90;5.77;;;;;;;;;;5075466;28;20602;-42
2021/01/19 03:48:34;;;;;;;5.00;4.60;;;;;;;;;;5068653;28;20167;-42
2021/01/19 03:50:59;;;;;;;5.43;4.93;;;;;;;;;;5071821;28;20527;-42
2021/01/19 03:53:24;;;;;;;4.80;4.40;;;;;;;;;;5068695;28;20186;-42
2021/01/19 03:55:50;;;;;;;5.23;4.73;;;;;;;;;;5067696;28;20714;-42
2021/01/19 03:58:15;;;;;;;4.50;3.97;;;;;;;;;;5061966;28;20182;-40
2021/01/19 04:00:40;;;;;;;6.13;5.70;;;;;;;;;;5072675;28;20179;-41
2021/01/19 04:03:05;;;;;;;4.47;4.17;;;;;;;;;;5069132;28;20197;-42
2021/01/19 04:05:31;;;;;;;4.78;4.47;;;;;;;;;;5073617;28;20175;-41
2021/01/19 04:07:56;;;;;;;4.78;4.32;;;;;;;;;;5075631;28;20650;-41
2021/01/19 04:10:21;;;;;;;4.77;4.10;;;;;;;;;;5072786;28;20187;-42
2021/01/19 04:12:46;;;;;;;4.67;4.33;;;;;;;;;;5083623;28;20171;-42
2021/01/19 04:15:11;;;;;;;4.50;4.20;;;;;;;;;;5075198;28;20252;-42
2021/01/19 04:17:37;;;;;;;4.10;3.80;;;;;;;;;;5070285;28;20209;-42
2021/01/19 04:20:03;;;;;;;4.37;4.07;;;;;;;;;;5056117;28;20562;-42
2021/01/19 04:22:28;;;;;;;5.40;5.00;;;;;;;;;;5070599;28;20207;-42
2021/01/19 04:24:53;;;;;;;4.18;3.88;;;;;;;;;;5074475;28;20197;-42
2021/01/19 04:27:19;;;;;;;4.80;4.40;;;;;;;;;;5075349;28;20167;-42
2021/01/19 04:29:44;;;;;;;4.00;3.70;;;;;;;;;;5074383;28;20529;-42
2021/01/19 04:32:09;;;;;;;4.22;3.92;;;;;;;;;;5075461;28;20232;-42
2021/01/19 04:34:34;;;;;;;4.27;3.97;;;;;;;;;;5075700;28;20175;-42
2021/01/19 04:36:59;;;;;;;5.32;4.82;;;;;;;;;;5077190;28;20172;-42
2021/01/19 04:39:24;;;;;;;4.28;3.97;;;;;;;;;;5072132;28;20226;-42
2021/01/19 04:41:49;;;;;;;5.10;4.70;;;;;;;;;;5071856;28;20209;-42
2021/01/19 04:44:15;;;;;;;4.85;4.55;;;;;;;;;;5077490;28;20529;-42
2021/01/19 04:46:41;;;;;;;5.27;4.77;;;;;;;;;;5073546;28;20179;-43
2021/01/19 04:49:06;;;;;;;4.73;4.33;;;;;;;;;;5075672;28;20597;-42
2021/01/19 04:51:32;;;;;;;4.77;4.47;;;;;;;;;;5075536;28;20185;-42
2021/01/19 04:53:59;;;;;;;4.77;4.33;;;;;;;;;;5070218;28;20189;-43
2021/01/19 04:56:25;;;;;;;4.83;4.53;;;;;;;;;;5068769;28;20607;-43
2021/01/19 04:58:52;;;;;;;5.10;4.70;;;;;;;;;;5057414;28;20677;-43
2021/01/19 05:01:27;;;;;;;5.40;4.90;;;;;;;;;;5073787;28;20180;-43
2021/01/19 05:03:56;;;;;;;6.93;4.50;;;;;;;;;;5075183;28;20601;-42
2021/01/19 05:06:31;;;;;;;4.97;4.57;;;;;;;;;;5075203;28;20601;-43
2021/01/19 05:08:56;;;;;;;6.23;5.50;;;;;;;;;;5075024;28;20656;-43
2021/01/19 05:11:23;;;;;;;4.70;4.30;;;;;;;;;;5067070;28;20628;-43
2021/01/19 05:13:52;;;;;;;4.80;4.47;;;;;;;;;;5065590;28;20250;-43
2021/01/19 05:16:22;;;;;;;5.33;4.83;;;;;;;;;;5066546;28;20605;-43
2021/01/19 05:18:47;;;;;;;6.83;4.47;;;;;;;;;;5068099;28;20685;-42
2021/01/19 05:21:13;;;;;;;4.80;4.50;;;;;;;;;;5062637;28;20744;-43
2021/01/19 05:23:38;;;;;;;4.50;4.20;;;;;;;;;;5070749;28;20724;-42
2021/01/19 05:26:05;;;;;;;4.77;4.37;;;;;;;;;;5073319;28;20213;-42
2021/01/19 05:28:39;;;;;;;4.97;4.57;;;;;;;;;;5077076;28;20259;-42
2021/01/19 05:31:17;;;;;;;5.07;4.67;;;;;;;;;;5081738;28;21016;-42
2021/01/19 05:33:42;;;;;;;5.10;4.40;;;;;;;;;;5074479;28;20637;-42
2021/01/19 05:36:11;;;;;;;5.17;4.77;;;;;;;;;;5076128;28;20697;-42
2021/01/19 05:38:45;;;;;;;5.13;4.70;;;;;;;;;;5083092;28;20177;-43
2021/01/19 05:41:10;;;;;;;5.63;5.03;;;;;;;;;;5066260;28;20965;-43
2021/01/19 05:43:36;;;;;;;5.00;4.60;;;;;;;;;;5069893;28;20652;-42
2021/01/19 05:46:01;;;;;;;5.70;5.20;;;;;;;;;;5071522;28;20164;-42
2021/01/19 05:48:36;;;;;;;5.68;5.25;;;;;;;;;;5069978;28;20232;-43
2021/01/19 05:51:01;;;;;;;5.57;4.60;;;;;;;;;;5071804;28;20175;-43
2021/01/19 05:53:26;;;;;;;5.50;5.10;;;;;;;;;;5071109;28;20616;-43
2021/01/19 05:55:59;;;;;;;4.80;4.40;;;;;;;;;;5071956;28;20601;-42
2021/01/19 05:58:33;;;;;;;5.33;4.93;;;;;;;;;;5068962;28;20184;-43
2021/01/19 06:01:01;;;;;;;7.70;5.73;;;;;;;;;;5072260;28;20683;-43
2021/01/19 06:03:28;;;;;;;5.40;5.00;;;;;;;;;;5071262;28;21104;-43
2021/01/19 06:05:53;;;;;;;5.53;5.03;;;;;;;;;;5068586;28;20636;-43
2021/01/19 06:08:22;;;;;;;6.13;4.95;;;;;;;;;;5065768;28;20626;-43
2021/01/19 06:10:48;;;;;;;5.60;5.10;;;;;;;;;;5065413;28;20178;-43
2021/01/19 06:13:14;;;;;;;5.60;5.10;;;;;;;;;;5067934;28;20608;-44
2021/01/19 06:15:40;;;;;;;6.00;5.50;;;;;;;;;;5067722;28;21233;-43
2021/01/19 06:18:06;;;;;;;4.93;4.53;;;;;;;;;;5065297;28;20547;-43
2021/01/19 06:20:41;;;;;;;6.03;5.40;;;;;;;;;;5067391;28;20613;-42
2021/01/19 06:23:07;;;;;;;5.23;4.83;;;;;;;;;;5066672;28;20210;-42
2021/01/19 06:25:32;;;;;;;5.50;5.07;;;;;;;;;;5065415;28;20628;-42
2021/01/19 06:28:06;;;;;;;5.57;5.17;;;;;;;;;;5064815;28;21015;-42
2021/01/19 06:30:31;;;;;;;6.53;6.00;;;;;;;;;;5060273;28;20273;-41
2021/01/19 06:32:59;;;;;;;6.80;5.80;;;;;;;;;;5067609;28;20659;-42
2021/01/19 06:35:24;;;;;;;5.77;5.37;;;;;;;;;;5067606;28;20175;-42
2021/01/19 06:37:53;;;;;;;5.78;5.28;;;;;;;;;;5064245;28;20973;-41
2021/01/19 06:40:19;;;;;;;6.60;6.00;;;;;;;;;;5062018;28;20185;-42
2021/01/19 06:42:59;;;;;;;6.20;5.70;;;;;;;;;;5067021;28;20652;-42
2021/01/19 06:45:24;;;;;;;8.30;6.83;;;;;;;;;;5064109;28;21027;-42
2021/01/19 06:47:50;;;;;;;6.13;5.50;;;;;;;;;;5065977;28;20617;-42
2021/01/19 06:50:20;;;;;;;6.80;6.20;;;;;;;;;;5066116;28;20173;-42
2021/01/19 06:52:52;;;;;;;6.23;5.73;;;;;;;;;;5061781;28;20982;-42
2021/01/19 06:55:22;;;;;;;5.40;5.00;;;;;;;;;;5067016;28;20602;-42
2021/01/19 06:58:03;;;;;;;6.80;6.20;;;;;;;;;;5066420;28;20600;-42
2021/01/19 07:00:36;;;;;;;6.47;5.30;;;;;;;;;;5064726;28;20612;-42
2021/01/19 07:03:16;;;;;;;6.53;5.93;;;;;;;;;;5067643;28;20652;-41
2021/01/19 07:05:43;;;;;;;8.07;5.90;;;;;;;;;;5068784;28;21006;-42
2021/01/19 07:08:20;;;;;;;7.10;6.40;;;;;;;;;;5067359;28;20609;-42
2021/01/19 07:11:05;;;;;;;6.27;5.67;;;;;;;;;;5069389;28;20681;-42
2021/01/19 07:13:36;;;;;;;6.97;6.20;;;;;;;;;;5065342;28;20661;-42
2021/01/19 07:16:05;;;;;;;7.10;6.50;;;;;;;;;;5068946;28;20619;-41
2021/01/19 07:18:30;;;;;;;6.70;6.17;;;;;;;;;;5066148;28;20617;-41
2021/01/19 07:21:08;;;;;;;7.15;6.45;;;;;;;;;;5068051;28;20633;-42
2021/01/19 07:23:45;;;;;;;6.17;5.77;;;;;;;;;;5068319;28;20217;-43
2021/01/19 07:26:12;;;;;;;6.50;5.90;;;;;;;;;;5069755;28;20633;-43
2021/01/19 07:28:37;;;;;;;7.23;6.53;;;;;;;;;;5067030;28;20760;-42
2021/01/19 07:31:02;;;;;;;7.20;6.50;;;;;;;;;;5059358;28;21436;-42
2021/01/19 07:33:28;;;;;;;6.90;6.30;;;;;;;;;;5068940;28;20175;-41
2021/01/19 07:35:54;;;;;;;5.83;5.40;;;;;;;;;;5063417;28;20189;-41
2021/01/19 07:38:23;;;;;;;6.30;5.80;;;;;;;;;;5065710;28;20620;-42
2021/01/19 07:40:49;;;;;;;6.90;6.40;;;;;;;;;;5068618;28;20190;-42
2021/01/19 07:43:17;;;;;;;6.37;5.73;;;;;;;;;;5068989;28;20652;-43
2021/01/19 07:45:49;;;;;;;6.17;5.67;;;;;;;;;;5057987;28;20645;-43
2021/01/19 07:48:14;;;;;;;10.10;9.10;;;;;;;;;;5064883;28;20601;-42
2021/01/19 07:50:44;;;;;;;8.47;7.80;;;;;;;;;;5070250;28;20601;-43
2021/01/19 07:53:09;;;;;;;8.57;7.67;;;;;;;;;;5069810;28;20193;-42
2021/01/19 07:55:44;;;;;;;8.23;7.47;;;;;;;;;;5069578;28;20573;-43
2021/01/19 07:58:14;;;;;;;6.93;6.33;;;;;;;;;;5066174;28;20738;-42
2021/01/19 08:00:43;;;;;;;6.20;5.70;;;;;;;;;;5047992;28;20594;-43
2021/01/19 08:03:09;;;;;;;6.60;6.10;;;;;;;;;;5065996;28;20641;-42
2021/01/19 08:05:34;;;;;;;7.03;6.00;;;;;;;;;;5061354;28;20738;-43
2021/01/19 08:08:00;;;;;;;7.13;6.53;;;;;;;;;;5065962;28;20172;-42
2021/01/19 08:10:27;;;;;;;7.03;6.37;;;;;;;;;;5069170;28;20176;-42
2021/01/19 08:12:54;;;;;;;6.30;5.80;;;;;;;;;;5069064;28;20705;-43
2021/01/19 08:15:21;;;;;;;7.40;6.60;;;;;;;;;;5066682;28;20676;-43
2021/01/19 08:17:49;;;;;;;8.07;7.37;;;;;;;;;;5067467;28;20601;-42
2021/01/19 08:20:22;;;;;;;6.23;5.73;;;;;;;;;;5069813;28;20601;-43
2021/01/19 08:22:47;;;;;;;6.63;6.03;;;;;;;;;;5069893;28;21210;-42
2021/01/19 08:25:21;;;;;;;5.63;5.23;;;;;;;;;;5065985;28;20732;-43
2021/01/19 08:27:47;;;;;;;4.80;4.30;;;;;;;;;;5066415;28;20180;-43
2021/01/19 08:30:26;;;;;;;4.60;4.23;;;;;;;;;;5064011;28;21107;-42
2021/01/19 08:32:52;;;;;;;4.70;4.30;;;;;;;;;;5066273;28;20581;-42
2021/01/19 08:35:18;;;;;;;4.10;3.70;;;;;;;;;;5066298;28;20816;-42
2021/01/19 08:37:48;;;;;;;3.73;3.43;;;;;;;;;;5066014;28;20421;-43
2021/01/19 08:40:19;;;;;;;3.97;3.67;;;;;;;;;;5064644;28;20585;-43
2021/01/19 08:42:44;;;;;;;4.80;3.30;;;;;;;;;;5065719;28;20653;-43
2021/01/19 08:45:10;;;;;;;3.97;3.67;;;;;;;;;;5066494;28;20600;-43
2021/01/19 08:47:36;;;;;;;3.60;3.30;;;;;;;;;;5065761;28;20572;-43
2021/01/19 08:50:01;;;;;;;4.70;3.47;;;;;;;;;;5064068;28;20781;-42
2021/01/19 08:52:26;;;;;;;4.47;3.65;;;;;;;;;;5068212;28;21234;-42
2021/01/19 08:54:52;;;;;;;3.50;3.20;;;;;;;;;;5069124;28;20233;-43
2021/01/19 08:57:20;;;;;;;4.03;3.73;;;;;;;;;;5068590;28;20736;-43
2021/01/19 08:59:51;;;;;;;3.53;3.23;;;;;;;;;;5064240;28;20230;-42
2021/01/19 09:02:17;;;;;;;5.80;3.33;;;;;;;;;;5061727;28;20734;-42
2021/01/19 09:04:44;;;;;;;3.30;3.07;;;;;;;;;;5071344;28;20689;-42
2021/01/19 09:07:10;;;;;;;4.87;3.50;;;;;;;;;;5069144;28;20607;-42
2021/01/19 09:09:36;;;;;;;3.30;3.00;;;;;;;;;;5069592;28;20721;-42
2021/01/19 09:12:01;;;;;;;2.67;2.40;;;;;;;;;;5071956;28;20700;-42
2021/01/19 09:14:27;;;;;;;6.50;2.90;;;;;;;;;;5071881;28;20304;-42
2021/01/19 09:16:52;;;;;;;3.27;2.40;;;;;;;;;;5072193;28;20167;-42
2021/01/19 09:19:18;;;;;;;4.33;2.60;;;;;;;;;;5069861;28;20610;-42
2021/01/19 09:21:43;;;;;;;2.93;2.70;;;;;;;;;;5071773;28;20171;-42
2021/01/19 09:24:12;;;;;;;2.37;2.17;;;;;;;;;;5071810;28;20172;-42
2021/01/19 09:26:53;;;;;;;2.83;2.63;;;;;;;;;;5072098;28;20200;-42
2021/01/19 09:29:21;;;;;;;3.43;2.80;;;;;;;;;;5070303;28;20660;-42
2021/01/19 09:31:46;;;;;;;5.00;2.57;;;;;;;;;;5072116;28;20986;-42
2021/01/19 09:34:12;;;;;;;3.93;2.63;;;;;;;;;;5072204;28;20596;-42
2021/01/19 09:36:37;;;;;;;2.40;2.27;;;;;;;;;;5072096;28;20336;-42
2021/01/19 09:39:02;;;;;;;6.13;2.53;;;;;;;;;;5068082;28;20627;-42
2021/01/19 09:41:27;;;;;;;3.63;2.70;;;;;;;;;;5069895;28;20179;-42
2021/01/19 09:43:54;;;;;;;4.00;2.40;;;;;;;;;;5071614;28;20203;-42
2021/01/19 09:46:26;;;;;;;4.37;2.40;;;;;;;;;;5071426;28;20176;-42
2021/01/19 09:48:52;;;;;;;2.70;2.50;;;;;;;;;;5069177;28;20632;-42
2021/01/19 09:51:23;;;;;;;3.67;2.70;;;;;;;;;;5071072;28;20611;-43
2021/01/19 09:53:52;;;;;;;3.30;2.60;;;;;;;;;;5071549;28;21114;-42
2021/01/19 09:56:17;;;;;;;3.00;2.40;;;;;;;;;;5071576;28;21053;-42
2021/01/19 09:58:42;;;;;;;4.47;3.80;;;;;;;;;;5071102;28;20611;-42
2021/01/19 10:01:08;;;;;;;4.40;2.37;;;;;;;;;;5068043;28;20180;-42
2021/01/19 10:03:34;;;;;;;3.47;2.57;;;;;;;;;;5070894;28;20336;-41
2021/01/19 10:06:00;;;;;;;3.17;2.23;;;;;;;;;;5071164;28;20585;-41
2021/01/19 10:08:25;;;;;;;2.97;2.67;;;;;;;;;;5070859;28;20196;-42
2021/01/19 10:10:50;;;;;;;2.70;2.50;;;;;;;;;;5067360;28;20622;-42
2021/01/19 10:13:16;;;;;;;2.47;1.90;;;;;;;;;;5070341;28;20198;-41
2021/01/19 10:15:41;;;;;;;3.22;2.70;;;;;;;;;;5070944;28;20304;-42
2021/01/19 10:18:06;;;;;;;4.72;2.40;;;;;;;;;;5071021;28;20172;-41
2021/01/19 10:20:32;;;;;;;4.73;2.47;;;;;;;;;;5068874;28;20197;-41
2021/01/19 10:22:58;;;;;;;2.73;2.37;;;;;;;;;;5070389;28;20225;-42
2021/01/19 10:25:28;;;;;;;3.30;2.53;;;;;;;;;;5070700;28;20611;-42
2021/01/19 10:27:57;;;;;;;2.70;2.30;;;;;;;;;;5071350;28;20262;-42
2021/01/19 10:30:27;;;;;;;2.50;2.30;;;;;;;;;;5069074;28;20573;-41
2021/01/19 10:32:52;;;;;;;3.37;2.27;;;;;;;;;;5070577;28;20600;-42
2021/01/19 10:35:28;;;;;;;4.03;2.73;;;;;;;;;;5070881;28;20581;-42
2021/01/19 10:37:55;;;;;;;2.40;2.20;;;;;;;;;;5068653;28;20187;-41
2021/01/19 10:40:21;;;;;;;2.80;2.20;;;;;;;;;;5066827;28;20577;-42
2021/01/19 10:42:46;;;;;;;3.30;2.63;;;;;;;;;;5069655;28;21079;-42
2021/01/19 10:45:11;;;;;;;2.73;2.53;;;;;;;;;;5070114;28;20197;-42
2021/01/19 10:47:40;;;;;;;2.93;2.73;;;;;;;;;;5070082;28;20168;-42
2021/01/19 10:50:31;;;;;;;2.63;2.43;;;;;;;;;;5068448;28;20170;-43
2021/01/19 10:53:00;;;;;;;3.23;2.23;;;;;;;;;;5067177;28;21065;-42
2021/01/19 10:55:26;;;;;;;3.30;2.30;;;;;;;;;;5069799;28;20629;-43
2021/01/19 10:57:52;;;;;;;3.93;2.90;;;;;;;;;;5070023;28;20644;-42
2021/01/19 11:00:17;;;;;;;3.30;2.60;;;;;;;;;;5066676;28;20171;-42
2021/01/19 11:02:42;;;;;;;2.57;2.37;;;;;;;;;;5069928;28;21226;-42
2021/01/19 11:05:07;;;;;;;3.10;2.53;;;;;;;;;;5069599;28;20650;-42
2021/01/19 11:07:33;;;;;;;2.87;2.50;;;;;;;;;;5069911;28;20176;-42
2021/01/19 11:09:58;;;;;;;5.95;3.05;;;;;;;;;;5067641;28;20183;-42
2021/01/19 11:12:23;;;;;;;5.78;2.90;;;;;;;;;;5069538;28;20170;-43
2021/01/19 11:14:48;;;;;;;2.47;2.30;;;;;;;;;;5069317;28;20267;-41
2021/01/19 11:17:13;;;;;;;3.27;2.60;;;;;;;;;;5069752;28;20194;-42
2021/01/19 11:19:38;;;;;;;3.97;3.33;;;;;;;;;;5067873;28;20677;-42
2021/01/19 11:22:07;;;;;;;2.70;2.50;;;;;;;;;;5069195;28;20196;-42
2021/01/19 11:24:32;;;;;;;6.07;2.80;;;;;;;;;;5067276;28;20196;-41
2021/01/19 11:26:57;;;;;;;3.80;2.78;;;;;;;;;;5067851;28;20598;-42
2021/01/19 11:29:22;;;;;;;4.38;3.03;;;;;;;;;;5065766;28;20192;-42
2021/01/19 11:31:48;;;;;;;4.17;2.80;;;;;;;;;;5069858;28;20706;-41
2021/01/19 11:34:15;;;;;;;3.87;3.20;;;;;;;;;;5070375;28;20579;-42
2021/01/19 11:36:40;;;;;;;3.43;3.00;;;;;;;;;;5069391;28;20301;-42
2021/01/19 11:39:09;;;;;;;3.80;2.97;;;;;;;;;;5069707;28;21021;-42
2021/01/19 11:41:42;;;;;;;3.17;2.87;;;;;;;;;;5068573;28;20669;-41
2021/01/19 11:44:07;;;;;;;5.43;3.10;;;;;;;;;;5069576;28;20644;-42
2021/01/19 11:46:33;;;;;;;6.27;3.43;;;;;;;;;;5069225;28;20595;-42
2021/01/19 11:48:59;;;;;;;4.00;2.40;;;;;;;;;;5068291;28;20216;-42
2021/01/19 11:51:25;;;;;;;3.63;2.43;;;;;;;;;;5064587;28;20213;-42
2021/01/19 11:53:51;;;;;;;3.73;2.93;;;;;;;;;;5069396;28;20603;-43
2021/01/19 11:56:17;;;;;;;4.73;2.27;;;;;;;;;;5068987;28;20603;-43
2021/01/19 11:58:42;;;;;;;6.07;2.60;;;;;;;;;;5068637;28;20176;-43
2021/01/19 12:01:08;;;;;;;7.10;2.80;;;;;;;;;;5056242;28;20189;-43
2021/01/19 12:03:33;;;;;;;3.10;2.70;;;;;;;;;;5068657;28;20949;-43
2021/01/19 12:05:58;;;;;;;5.70;2.90;;;;;;;;;;5068810;28;20198;-43
2021/01/19 12:08:24;;;;;;;2.53;2.33;;;;;;;;;;5069298;28;20174;-42
2021/01/19 12:10:49;;;;;;;5.60;2.93;;;;;;;;;;5066109;28;20544;-43
2021/01/19 12:13:14;;;;;;;3.55;2.47;;;;;;;;;;5069741;28;20183;-44
2021/01/19 12:15:42;;;;;;;2.30;2.17;;;;;;;;;;5070042;28;20190;-42
2021/01/19 12:18:07;;;;;;;4.03;2.43;;;;;;;;;;5069738;28;20290;-42
2021/01/19 12:20:32;;;;;;;3.50;2.70;;;;;;;;;;5067588;28;20625;-43
2021/01/19 12:22:57;;;;;;;3.20;2.87;;;;;;;;;;5070216;28;20307;-43
2021/01/19 12:25:22;;;;;;;2.77;2.60;;;;;;;;;;5072164;28;20197;-43
2021/01/19 12:27:48;;;;;;;3.97;2.53;;;;;;;;;;5073686;28;20174;-43
2021/01/19 12:30:13;;;;;;;3.50;3.20;;;;;;;;;;5071787;28;20168;-42
2021/01/19 12:32:39;;;;;;;3.27;2.87;;;;;;;;;;5073361;28;20196;-43
2021/01/19 12:35:04;;;;;;;2.70;2.50;;;;;;;;;;5070323;28;20181;-42
2021/01/19 12:37:29;;;;;;;3.13;2.80;;;;;;;;;;5071225;28;20176;-42
2021/01/19 12:39:54;;;;;;;3.35;3.05;;;;;;;;;;5070947;28;20233;-42
2021/01/19 12:42:19;;;;;;;3.25;2.22;;;;;;;;;;5070843;28;20192;-43
2021/01/19 12:44:44;;;;;;;3.15;2.85;;;;;;;;;;5072417;28;20182;-42
2021/01/19 12:47:10;;;;;;;2.30;2.20;;;;;;;;;;5054215;28;20179;-43
2021/01/19 12:49:35;;;;;;;3.15;2.85;;;;;;;;;;5070490;28;20652;-43
2021/01/19 12:52:00;;;;;;;7.50;3.78;;;;;;;;;;5073185;28;20199;-43
2021/01/19 12:54:25;;;;;;;3.58;2.90;;;;;;;;;;5073587;28;20187;-42
2021/01/19 12:56:50;;;;;;;2.88;2.63;;;;;;;;;;5072982;28;20585;-43
2021/01/19 12:59:15;;;;;;;4.30;3.80;;;;;;;;;;5072717;28;20191;-43
2021/01/19 13:01:41;;;;;;;7.75;5.90;;;;;;;;;;5069296;28;20285;-43
2021/01/19 13:04:06;;;;;;;6.63;6.03;;;;;;;;;;5073472;28;20723;-42
2021/01/19 13:06:31;;;;;;;6.90;6.20;;;;;;;;;;5073433;28;20186;-43
2021/01/19 13:08:56;;;;;;;6.25;5.80;;;;;;;;;;5073600;28;20587;-42
2021/01/19 13:11:21;;;;;;;7.20;6.53;;;;;;;;;;5071202;28;20624;-42
2021/01/19 13:13:46;;;;;;;8.63;6.60;;;;;;;;;;5073190;28;20215;-43
2021/01/19 13:16:12;;;;;;;7.13;6.40;;;;;;;;;;5073027;28;20663;-42
2021/01/19 13:18:37;;;;;;;6.30;5.70;;;;;;;;;;5072908;28;20189;-42
2021/01/19 13:21:03;;;;;;;6.93;6.33;;;;;;;;;;5071449;28;20171;-43
2021/01/19 13:23:28;;;;;;;7.40;6.70;;;;;;;;;;5072381;28;20576;-42
2021/01/19 13:25:53;;;;;;;6.55;5.95;;;;;;;;;;5076078;28;20620;-42
2021/01/19 13:28:18;;;;;;;6.25;5.65;;;;;;;;;;5075202;28;20546;-42
2021/01/19 13:30:44;;;;;;;5.65;5.03;;;;;;;;;;5062178;28;20247;-43
2021/01/19 13:33:09;;;;;;;6.67;5.70;;;;;;;;;;5078028;28;20182;-43
2021/01/19 13:35:34;;;;;;;6.55;5.95;;;;;;;;;;5070698;28;20179;-43
2021/01/19 13:37:59;;;;;;;6.23;5.63;;;;;;;;;;5071320;28;20185;-43
2021/01/19 13:40:24;;;;;;;6.73;6.03;;;;;;;;;;5075407;28;20171;-42
2021/01/19 13:42:50;;;;;;;6.07;5.43;;;;;;;;;;5070546;28;20215;-42
2021/01/19 13:45:15;;;;;;;4.73;4.33;;;;;;;;;;5074584;28;20258;-43
2021/01/19 13:47:40;;;;;;;5.93;4.67;;;;;;;;;;5077503;28;20190;-43
2021/01/19 13:50:05;;;;;;;6.97;6.27;;;;;;;;;;5073392;28;20569;-42
2021/01/19 13:52:31;;;;;;;6.00;5.13;;;;;;;;;;5077437;28;20175;-42
2021/01/19 13:54:56;;;;;;;7.53;5.63;;;;;;;;;;5077609;28;20666;-43
2021/01/19 13:57:21;;;;;;;7.20;5.55;;;;;;;;;;5079944;28;20217;-43
2021/01/19 13:59:46;;;;;;;25.00;15.73;;;;;;;;;;5084221;28;20237;-43
2021/01/19 14:02:11;;;;;;;36.60;22.40;;;;;;;;;;5072681;28;20205;-42
2021/01/19 14:04:37;;;;;;;10.18;8.65;;;;;;;;;;5074807;28;20250;-42
2021/01/19 14:07:02;;;;;;;7.35;6.50;;;;;;;;;;5078920;28;20181;-43
2021/01/19 14:09:28;;;;;;;5.93;5.30;;;;;;;;;;5070627;28;20187;-42
2021/01/19 14:11:53;;;;;;;6.50;6.00;;;;;;;;;;5066505;28;20185;-42
2021/01/19 14:14:23;;;;;;;6.25;5.65;;;;;;;;;;5069743;28;21069;-42
2021/01/19 14:18:54;;;;;;;6.53;5.20;;;;;;;;;;5081915;27;20720;-42
2021/01/19 14:21:20;;;;;;;5.20;4.60;;;;;;;;;;5070901;28;21269;-42
2021/01/19 14:23:46;;;;;;;4.97;3.20;;;;;;;;;;5065819;28;20175;-42
2021/01/19 14:26:11;;;;;;;3.50;3.20;;;;;;;;;;5066785;28;20621;-42
2021/01/19 14:28:37;;;;;;;3.23;2.67;;;;;;;;;;5070296;28;20246;-42
2021/01/19 14:31:03;;;;;;;2.63;2.43;;;;;;;;;;5066129;28;20206;-43
2021/01/19 14:33:28;;;;;;;2.10;2.00;;;;;;;;;;5065302;28;20206;-42
2021/01/19 14:35:53;;;;;;;2.40;2.20;;;;;;;;;;5059411;28;20177;-42
2021/01/19 14:38:19;;;;;;;2.13;1.95;;;;;;;;;;5067013;28;20208;-43
2021/01/19 14:40:44;;;;;;;2.20;1.90;;;;;;;;;;5064323;28;20167;-43
2021/01/19 14:43:09;;;;;;;2.13;2.03;;;;;;;;;;5066983;28;20179;-42